Time;durP1;ratioP1;P1;durP2;ratioP2;P2;SDS_P1;SDS_P2;PMS_P1;PMS_P2;Temp;Humidity;BMP_temperature;BMP_pressure;BME280_temperature;BME280_humidity;BME280_pressure;Samples;Min_cycle;Max_cycle;Signal;HPM_P1;HPM_P2
2022/01/13 00:00:30;;;;;;;21.45;15.30;;;;;;;-4.42;85.42;100872.28;5114831;28;20071;-71
2022/01/13 00:02:55;;;;;;;18.97;12.30;;;;;;;-4.38;84.92;100859.09;5118326;28;20047;-72
2022/01/13 00:05:27;;;;;;;22.73;15.00;;;;;;;-4.44;85.24;100843.75;5118904;28;20088;-67
2022/01/13 00:07:55;;;;;;;19.27;12.60;;;;;;;-4.41;84.61;100834.97;5117557;28;20039;-72
2022/01/13 00:10:22;;;;;;;13.77;9.65;;;;;;;-4.33;84.93;100838.13;5114340;28;20478;-71
2022/01/13 00:12:50;;;;;;;22.25;12.85;;;;;;;-4.36;85.11;100827.81;5114452;28;20071;-72
2022/01/13 00:18:03;;;;;;;21.92;11.77;;;;;;;-4.30;85.13;100787.75;5114236;28;20031;-73
2022/01/13 00:20:37;;;;;;;19.27;12.63;;;;;;;-4.26;86.04;100779.72;5114239;28;20047;-71
2022/01/13 00:25:38;;;;;;;16.85;11.45;;;;;;;-4.24;86.00;100753.66;5114247;28;20035;-71
2022/01/13 00:28:13;;;;;;;20.80;11.75;;;;;;;-4.15;86.32;100750.63;5114021;28;20078;-71
2022/01/13 00:30:39;;;;;;;21.52;12.90;;;;;;;-4.17;86.35;100726.44;5113941;28;20046;-69
2022/01/13 00:33:04;;;;;;;22.77;13.77;;;;;;;-4.11;86.24;100719.22;5113935;28;20031;-73
2022/01/13 00:35:30;;;;;;;20.63;14.63;;;;;;;-4.09;86.46;100709.56;5095411;28;20114;-70
2022/01/13 00:37:56;;;;;;;24.43;14.07;;;;;;;-4.23;87.09;100682.53;5113763;28;20077;-71
2022/01/13 00:40:22;;;;;;;21.58;14.15;;;;;;;-4.01;87.56;100705.78;5113922;28;20043;-73
2022/01/13 00:42:47;;;;;;;24.40;14.37;;;;;;;-4.01;87.17;100685.81;5113697;28;20093;-70
2022/01/13 00:45:14;;;;;;;24.37;14.40;;;;;;;-3.89;87.90;100694.81;5113392;28;20041;-70
2022/01/13 00:47:41;;;;;;;25.90;14.18;;;;;;;-3.93;87.99;100665.50;5113716;28;20041;-69
2022/01/13 00:50:07;;;;;;;24.10;14.27;;;;;;;-4.07;87.29;100645.31;5113679;28;20040;-71
2022/01/13 00:52:33;;;;;;;24.85;16.73;;;;;;;-4.16;87.92;100624.13;5113832;28;20394;-69
2022/01/13 00:55:01;;;;;;;25.53;13.50;;;;;;;-3.81;87.56;100664.03;5113614;28;20072;-69
2022/01/13 00:57:31;;;;;;;23.00;15.15;;;;;;;-3.76;88.18;100659.47;5113473;28;20050;-68
2022/01/13 00:59:57;;;;;;;21.58;13.25;;;;;;;-3.72;87.30;100655.81;5113345;28;20134;-69
2022/01/13 01:02:23;;;;;;;22.57;14.07;;;;;;;-3.73;87.80;100643.72;5113802;28;20069;-71
2022/01/13 01:04:48;;;;;;;22.37;14.90;;;;;;;-3.66;87.53;100639.91;5113431;28;20035;-68
2022/01/13 01:07:14;;;;;;;24.97;14.30;;;;;;;-3.63;88.10;100639.75;5095166;28;20035;-72
2022/01/13 01:09:47;;;;;;;24.00;15.73;;;;;;;-3.59;87.61;100640.44;5113328;28;20046;-71
2022/01/13 01:12:12;;;;;;;22.25;13.77;;;;;;;-3.71;87.36;100605.44;5113467;28;20492;-73
2022/01/13 01:14:45;;;;;;;22.80;16.10;;;;;;;-3.54;87.27;100618.44;5113328;28;20180;-70
2022/01/13 01:17:11;;;;;;;20.55;12.70;;;;;;;-3.53;87.92;100617.53;5112562;28;20038;-71
2022/01/13 01:19:40;;;;;;;21.40;14.00;;;;;;;-3.46;87.93;100605.06;5113087;28;20176;-69
2022/01/13 01:27:43;;;;;;;17.70;12.27;;;;;;;-3.50;87.62;100573.13;5112957;28;20035;-69
2022/01/13 01:30:21;;;;;;;20.08;13.68;;;;;;;-3.42;87.93;100574.50;5113172;28;20406;-72
2022/01/13 01:32:47;;;;;;;22.52;13.50;;;;;;;-3.36;87.28;100575.03;5113420;28;20058;-70
2022/01/13 01:35:14;;;;;;;21.50;13.43;;;;;;;-3.41;87.32;100544.94;5113004;28;20063;-70
2022/01/13 01:37:42;;;;;;;18.08;11.98;;;;;;;-3.33;87.76;100543.63;5113582;28;20066;-70
2022/01/13 01:40:11;;;;;;;25.15;14.65;;;;;;;-3.33;87.60;100532.38;5113634;28;20047;-69
2022/01/13 01:42:37;;;;;;;17.88;12.25;;;;;;;-3.29;87.27;100532.13;5113157;28;20124;-69
2022/01/13 01:45:04;;;;;;;18.33;12.98;;;;;;;-3.30;87.81;100507.00;5113014;28;20043;-68
2022/01/13 01:47:31;;;;;;;22.20;12.02;;;;;;;-3.35;88.09;100479.53;5112574;28;20035;-71
2022/01/13 01:50:16;;;;;;;20.63;12.73;;;;;;;-3.27;88.25;100486.00;5112462;28;20081;-69
2022/01/13 01:52:42;;;;;;;17.85;11.57;;;;;;;-3.42;88.50;100467.78;5112606;28;20036;-71
2022/01/13 01:55:08;;;;;;;23.27;13.73;;;;;;;-3.30;89.43;100460.13;5094558;28;20039;-72
2022/01/13 01:57:34;;;;;;;23.25;13.35;;;;;;;-3.28;88.98;100434.84;5112545;28;20043;-69
2022/01/13 01:59:59;;;;;;;22.83;14.50;;;;;;;-3.40;89.09;100406.88;5112438;28;20490;-72
2022/01/13 02:02:27;;;;;;;22.43;13.03;;;;;;;-3.29;89.20;100414.94;5112320;28;20087;-72
2022/01/13 02:04:53;;;;;;;24.05;13.88;;;;;;;-3.22;89.05;100415.44;5112577;28;20034;-71
2022/01/13 02:07:18;;;;;;;20.37;13.57;;;;;;;-3.27;88.76;100401.84;5094397;28;20039;-70
2022/01/13 02:09:50;;;;;;;22.07;14.50;;;;;;;-3.18;89.27;100390.91;5112720;28;20094;-69
2022/01/13 02:12:27;;;;;;;20.00;12.45;;;;;;;-3.26;89.30;100367.06;5094295;28;20066;-70
2022/01/13 02:14:59;;;;;;;21.25;14.13;;;;;;;-3.21;89.28;100375.44;5112237;28;20044;-69
2022/01/13 02:17:28;;;;;;;19.10;12.35;;;;;;;-3.12;89.05;100380.16;5112618;28;20034;-69
2022/01/13 02:19:56;;;;;;;23.88;14.00;;;;;;;-3.15;89.21;100364.72;5112237;28;20065;-69
2022/01/13 02:22:23;;;;;;;20.80;13.07;;;;;;;-3.07;88.91;100372.94;5112058;28;20038;-71
2022/01/13 02:24:49;;;;;;;18.52;11.48;;;;;;;-2.99;88.65;100378.53;5093965;28;20051;-71
2022/01/13 02:27:15;;;;;;;18.02;12.30;;;;;;;-3.06;88.60;100371.16;5113730;28;20490;-69
2022/01/13 02:29:40;;;;;;;20.93;12.90;;;;;;;-3.01;88.93;100380.41;5116453;28;20123;-70
2022/01/13 02:32:07;;;;;;;20.10;13.83;;;;;;;-2.95;88.76;100382.66;5116468;28;20036;-69
2022/01/13 02:34:33;;;;;;;18.20;12.50;;;;;;;-2.89;88.68;100382.34;5116016;28;20035;-71
2022/01/13 02:37:00;;;;;;;19.25;13.07;;;;;;;-2.84;89.38;100364.66;5116187;28;20558;-68
2022/01/13 02:39:27;;;;;;;18.80;11.75;;;;;;;-2.76;88.79;100366.00;5115776;28;20051;-70
2022/01/13 02:41:54;;;;;;;18.60;11.90;;;;;;;-2.81;89.10;100321.94;5116767;28;20051;-70
2022/01/13 02:44:22;;;;;;;20.15;12.32;;;;;;;-2.69;89.03;100328.22;5116105;28;20035;-73
2022/01/13 02:49:16;;;;;;;18.05;11.93;;;;;;;-2.64;89.29;100297.50;5116510;28;20035;-69
2022/01/13 02:51:44;;;;;;;17.50;11.57;;;;;;;-2.61;88.39;100295.53;5116111;28;20039;-71
2022/01/13 02:54:11;;;;;;;18.70;11.77;;;;;;;-2.57;89.23;100298.84;5115892;28;20447;-68
2022/01/13 02:56:37;;;;;;;18.77;12.30;;;;;;;-2.59;89.00;100272.84;5115722;28;20039;-73
2022/01/13 02:59:28;;;;;;;17.95;10.98;;;;;;;-2.52;88.67;100276.78;5101302;28;20077;-73
2022/01/13 03:01:54;;;;;;;19.17;11.73;;;;;;;-2.68;89.08;100242.09;5097354;28;20495;-71
2022/01/13 03:04:21;;;;;;;20.73;10.80;;;;;;;-2.67;89.25;100227.28;5097352;28;20035;-70
2022/01/13 03:06:47;;;;;;;19.15;11.52;;;;;;;-2.43;89.66;100254.50;5115286;28;20032;-72
2022/01/13 03:09:21;;;;;;;17.87;11.03;;;;;;;-2.43;89.01;100244.09;5114855;28;20049;-73
2022/01/13 03:12:00;;;;;;;20.13;12.15;;;;;;;-2.34;89.78;100246.13;5114637;28;20284;-71
2022/01/13 03:14:32;;;;;;;26.35;13.30;;;;;;;-2.37;89.64;100212.41;5080372;28;20035;-71
2022/01/13 03:16:58;;;;;;;18.75;11.30;;;;;;;-2.38;89.49;100196.84;5079208;28;20188;-75
2022/01/13 03:19:24;;;;;;;18.60;12.03;;;;;;;-2.34;90.08;100180.09;5095846;28;20119;-72
2022/01/13 03:21:55;;;;;;;19.23;10.97;;;;;;;-2.39;90.04;100177.75;5096207;28;20118;-70
2022/01/13 03:24:24;;;;;;;24.80;11.90;;;;;;;-2.43;90.33;100159.81;5096102;28;20027;-70
2022/01/13 03:26:51;;;;;;;19.65;11.55;;;;;;;-2.48;90.50;100147.06;5114284;28;20046;-71
2022/01/13 03:29:20;;;;;;;22.90;13.43;;;;;;;-2.17;90.13;100173.84;5078733;28;20525;-74
2022/01/13 03:31:47;;;;;;;19.40;12.85;;;;;;;-2.30;90.85;100140.69;5078868;28;20067;-75
2022/01/13 03:34:19;;;;;;;21.63;12.27;;;;;;;-2.31;90.91;100132.97;5095534;28;20509;-72
2022/01/13 03:36:50;;;;;;;17.98;11.50;;;;;;;-2.07;90.06;100151.44;5077908;28;20053;-70
2022/01/13 03:39:19;;;;;;;18.50;11.13;;;;;;;-2.11;90.86;100131.69;5113179;28;20055;-70
2022/01/13 03:41:45;;;;;;;20.90;11.98;;;;;;;-2.05;90.52;100118.25;5095765;28;20050;-71
2022/01/13 03:44:29;;;;;;;16.37;10.40;;;;;;;-2.05;91.01;100111.25;5114255;28;20043;-71
2022/01/13 03:47:01;;;;;;;18.77;11.20;;;;;;;-2.09;90.61;100095.91;5114246;28;20058;-71
2022/01/13 03:49:32;;;;;;;19.77;12.35;;;;;;;-2.04;90.88;100084.22;5079181;28;20058;-73
2022/01/13 03:52:13;;;;;;;18.33;11.43;;;;;;;-1.89;91.32;100105.91;5096606;28;20050;-72
2022/01/13 03:54:39;;;;;;;18.05;10.88;;;;;;;-1.90;91.31;100085.97;5101203;28;20039;-71
2022/01/13 03:57:47;;;;;;;18.48;10.93;;;;;;;-1.89;91.21;100072.81;5101205;28;20040;-72
2022/01/13 04:00:38;;;;;;;22.27;11.75;;;;;;;-2.27;91.13;99951.88;5098332;28;20044;-72
2022/01/13 04:03:04;;;;;;;16.42;11.93;;;;;;;-1.86;91.51;99967.38;5095250;28;20092;-71
2022/01/13 04:05:29;;;;;;;16.60;11.90;;;;;;;-1.76;91.80;99989.31;5095849;28;20040;-70
2022/01/13 04:07:56;;;;;;;28.97;13.43;;;;;;;-1.94;91.66;99940.97;5114596;28;20119;-69
2022/01/13 04:10:46;;;;;;;21.65;12.27;;;;;;;-1.73;91.31;99972.63;5114444;28;20036;-74
2022/01/13 04:13:32;;;;;;;18.58;11.65;;;;;;;-1.77;91.55;99961.53;5115840;28;20553;-72
2022/01/13 04:15:57;;;;;;;18.98;11.55;;;;;;;-1.84;90.97;99912.47;5120722;28;20122;-72
2022/01/13 04:18:23;;;;;;;17.80;10.93;;;;;;;-1.80;91.50;99893.88;5103997;28;20138;-71
2022/01/13 04:20:52;;;;;;;19.13;12.03;;;;;;;-1.70;91.07;99899.31;5116834;28;20041;-72
2022/01/13 04:23:17;;;;;;;17.88;12.23;;;;;;;-1.66;91.80;99903.38;5113995;28;20042;-71
2022/01/13 04:25:46;;;;;;;19.80;11.50;;;;;;;-1.65;91.68;99898.06;5113708;28;20040;-71
2022/01/13 04:28:13;;;;;;;16.63;10.70;;;;;;;-1.56;91.68;99918.31;5114301;28;20062;-70
2022/01/13 04:30:47;;;;;;;18.40;10.85;;;;;;;-1.48;91.66;99924.75;5114379;28;20044;-71
2022/01/13 04:33:16;;;;;;;16.88;10.45;;;;;;;-1.46;91.11;99936.78;5095575;28;20123;-71
2022/01/13 04:35:42;;;;;;;;;;;;;;;-1.39;91.57;99939.81;5114363;28;20028;-66
2022/01/13 04:38:08;;;;;;;18.43;10.47;;;;;;;-1.40;91.28;99919.88;5113368;28;19943;-70
2022/01/13 04:40:36;;;;;;;14.63;10.23;;;;;;;-1.38;91.62;99925.81;5113215;28;20486;-70
2022/01/13 04:43:02;;;;;;;16.02;10.20;;;;;;;-1.30;91.59;99916.47;5113377;28;20487;-74
2022/01/13 04:45:30;;;;;;;13.17;8.63;;;;;;;-1.19;91.33;99914.88;5113753;28;20047;-71
2022/01/13 04:47:57;;;;;;;14.63;9.23;;;;;;;-1.09;91.72;99884.56;5113229;28;20039;-72
2022/01/13 04:50:29;;;;;;;15.77;9.52;;;;;;;-1.02;91.43;99881.41;5112784;28;20038;-72
2022/01/13 04:52:54;;;;;;;13.75;8.55;;;;;;;-0.90;91.62;99879.66;5113347;28;20502;-74
2022/01/13 04:55:29;;;;;;;15.10;8.73;;;;;;;-0.83;91.18;99875.69;5094955;28;20039;-74
2022/01/13 04:58:01;;;;;;;13.43;7.90;;;;;;;-1.03;91.16;99824.84;5113025;28;20043;-72
2022/01/13 05:00:39;;;;;;;18.43;9.07;;;;;;;-0.77;91.70;99848.25;5094511;28;20300;-71
2022/01/13 05:03:04;;;;;;;11.33;7.73;;;;;;;-0.55;92.33;99857.97;5094656;28;20264;-73
2022/01/13 05:05:33;;;;;;;13.20;8.03;;;;;;;-0.48;92.33;99846.91;5112756;28;20616;-71
2022/01/13 05:08:01;;;;;;;13.50;8.20;;;;;;;-0.51;92.63;99818.38;5112655;28;20043;-73
2022/01/13 05:10:27;;;;;;;15.23;7.13;;;;;;;-0.42;92.47;99812.44;5113181;28;20031;-72
2022/01/13 05:12:57;;;;;;;16.73;8.57;;;;;;;-0.29;92.59;99795.81;5112679;28;20036;-72
2022/01/13 05:15:28;;;;;;;16.43;9.23;;;;;;;-0.27;92.49;99778.25;5062323;28;20035;-72
2022/01/13 05:18:17;;;;;;;13.18;7.75;;;;;;;-0.22;92.44;99776.94;5094307;28;20261;-72
2022/01/13 05:20:50;;;;;;;15.23;8.68;;;;;;;-0.11;91.94;99769.06;5112920;28;20039;-71
2022/01/13 05:23:17;;;;;;;14.97;8.40;;;;;;;-0.07;92.33;99759.19;5112994;28;20126;-72
2022/01/13 05:25:44;;;;;;;16.77;8.53;;;;;;;-0.47;91.99;99682.97;5112134;28;20262;-71
2022/01/13 05:28:32;;;;;;;15.77;8.27;;;;;;;-0.12;92.52;99745.63;5112515;28;20325;-72
2022/01/13 05:31:10;;;;;;;15.40;8.80;;;;;;;-0.17;92.60;99732.91;5108217;28;20265;-71
2022/01/13 05:33:36;;;;;;;16.15;8.93;;;;;;;-0.07;92.40;99733.84;5112370;28;20273;-70
2022/01/13 05:36:05;;;;;;;14.23;9.27;;;;;;;-0.01;92.59;99732.53;5112201;28;20039;-71
2022/01/13 05:38:33;;;;;;;15.10;9.43;;;;;;;0.01;92.41;99688.78;5073513;28;20047;-71
2022/01/13 05:40:59;;;;;;;16.17;9.33;;;;;;;0.02;92.22;99658.19;5090196;28;20376;-70
2022/01/13 05:43:33;;;;;;;15.40;7.60;;;;;;;0.06;92.52;99657.81;5091526;28;20349;-72
2022/01/13 05:46:03;;;;;;;17.37;9.30;;;;;;;0.04;92.51;99646.66;5091678;28;20032;-70
2022/01/13 05:48:35;;;;;;;15.67;8.47;;;;;;;-0.08;92.36;99647.59;5091859;28;20775;-71
2022/01/13 05:51:01;;;;;;;17.13;9.17;;;;;;;0.08;92.51;99674.25;5091393;28;20289;-70
2022/01/13 05:53:29;;;;;;;28.77;19.20;;;;;;;0.07;92.53;99667.34;5091329;28;20716;-73
2022/01/13 05:56:04;;;;;;;18.27;7.90;;;;;;;0.11;92.60;99655.66;5091288;28;20028;-70
2022/01/13 05:58:32;;;;;;;10.87;8.40;;;;;;;0.14;92.16;99655.41;5091416;28;20324;-70
2022/01/13 06:00:59;;;;;;;12.37;7.67;;;;;;;0.07;92.16;99617.59;5089684;28;20055;-69
2022/01/13 06:03:24;;;;;;;15.50;10.10;;;;;;;0.15;92.47;99616.97;5090840;28;20262;-72
2022/01/13 06:05:56;;;;;;;12.43;8.10;;;;;;;0.18;92.54;99601.00;5090763;28;20110;-69
2022/01/13 06:08:22;;;;;;;14.93;7.53;;;;;;;0.19;92.45;99600.06;5091066;28;20056;-69
2022/01/13 06:10:47;;;;;;;12.67;8.07;;;;;;;0.15;92.29;99578.53;5085172;28;20409;-69
2022/01/13 06:13:13;;;;;;;12.80;7.93;;;;;;;0.16;92.74;99556.63;5090229;28;20043;-71
2022/01/13 06:15:42;;;;;;;13.90;7.43;;;;;;;0.24;92.66;99556.81;5090748;28;20394;-69
2022/01/13 06:18:15;;;;;;;19.73;9.27;;;;;;;0.32;92.39;99558.00;5091181;28;20505;-71
2022/01/13 06:20:42;;;;;;;14.67;9.20;;;;;;;0.38;92.62;99581.06;5091803;28;20044;-69
2022/01/13 06:23:10;;;;;;;13.37;7.43;;;;;;;0.24;92.43;99543.72;5090523;28;20298;-71
2022/01/13 06:25:35;;;;;;;11.67;7.43;;;;;;;0.37;92.89;99558.44;5091764;28;20261;-69
2022/01/13 06:28:06;;;;;;;22.97;9.33;;;;;;;0.36;92.54;99539.28;5092095;28;20266;-71
2022/01/13 06:30:35;;;;;;;11.10;6.80;;;;;;;0.32;92.53;99560.63;5091450;28;20036;-75
2022/01/13 06:33:01;;;;;;;13.75;7.22;;;;;;;0.41;92.34;99567.72;5091141;28;20368;-72
2022/01/13 06:35:27;;;;;;;10.57;7.20;;;;;;;0.43;92.94;99594.59;5090864;28;20131;-74
2022/01/13 06:37:52;;;;;;;21.27;8.47;;;;;;;0.44;92.44;99591.03;5095396;28;20126;-71
2022/01/13 06:40:19;;;;;;;11.60;7.33;;;;;;;0.48;92.67;99593.25;5111442;28;20304;-72
2022/01/13 06:42:45;;;;;;;11.57;6.73;;;;;;;0.42;92.67;99572.00;5093399;28;20517;-72
2022/01/13 06:45:11;;;;;;;14.27;7.90;;;;;;;0.54;92.34;99584.88;5112010;28;20265;-72
2022/01/13 06:47:40;;;;;;;13.27;7.10;;;;;;;0.52;92.15;99581.56;5111804;28;20519;-72
2022/01/13 06:50:06;;;;;;;;;;;;;;;0.59;92.25;99581.91;5112226;28;20535;-72
2022/01/13 06:52:40;;;;;;;13.53;6.13;;;;;;;0.52;92.45;99565.84;5111495;28;19923;-72
2022/01/13 06:55:06;;;;;;;13.53;6.13;;;;;;;0.53;92.31;99558.81;5093494;28;20031;-74
2022/01/13 06:57:33;;;;;;;13.37;6.83;;;;;;;0.53;92.08;99548.34;5093302;28;20285;-73
2022/01/13 06:59:59;;;;;;;12.67;5.80;;;;;;;0.54;92.31;99561.31;5111249;28;20352;-73
2022/01/13 07:02:28;;;;;;;9.23;6.97;;;;;;;0.61;92.12;99562.47;5093730;28;20277;-72
2022/01/13 07:04:54;;;;;;;12.93;6.47;;;;;;;0.67;92.60;99547.19;5112906;28;20265;-75
2022/01/13 07:07:20;;;;;;;10.03;5.57;;;;;;;0.72;92.42;99539.78;5112956;28;20046;-71
2022/01/13 07:09:45;;;;;;;13.47;5.97;;;;;;;0.78;92.04;99537.47;5112643;28;20035;-70
2022/01/13 07:12:12;;;;;;;11.13;5.53;;;;;;;0.76;91.84;99528.91;5112507;28;20396;-77
2022/01/13 07:14:37;;;;;;;10.87;4.73;;;;;;;0.84;91.55;99547.41;5114009;28;20044;-70
2022/01/13 07:17:04;;;;;;;7.97;4.40;;;;;;;0.82;91.46;99557.19;5116030;28;20272;-69
2022/01/13 07:19:29;;;;;;;13.77;5.00;;;;;;;0.81;91.59;99547.69;5115816;28;20051;-72
2022/01/13 07:21:55;;;;;;;13.63;5.03;;;;;;;0.83;91.40;99556.25;5115356;28;20314;-72
2022/01/13 07:24:21;;;;;;;11.13;4.90;;;;;;;0.85;91.62;99553.50;5115285;28;20096;-72
2022/01/13 07:26:46;;;;;;;11.70;4.30;;;;;;;0.81;91.42;99546.84;5115377;28;20039;-73
2022/01/13 07:29:12;;;;;;;10.53;4.63;;;;;;;0.81;91.66;99536.38;5115102;28;20038;-74
2022/01/13 07:31:38;;;;;;;4.37;3.50;;;;;;;0.82;91.57;99546.72;5097570;28;20443;-75
2022/01/13 07:34:05;;;;;;;9.67;4.47;;;;;;;0.89;91.49;99537.41;5116279;28;20394;-75
2022/01/13 07:36:31;;;;;;;9.50;3.33;;;;;;;1.10;91.65;99550.44;5096952;28;20284;-74
2022/01/13 07:38:59;;;;;;;11.10;4.53;;;;;;;1.21;91.13;99549.53;5115496;28;20305;-76
2022/01/13 07:41:25;;;;;;;17.17;5.20;;;;;;;1.27;90.73;99537.66;5115820;28;20078;-75
2022/01/13 07:43:54;;;;;;;10.03;3.50;;;;;;;1.38;90.46;99535.75;5115215;28;20424;-75
2022/01/13 07:46:22;;;;;;;7.07;3.43;;;;;;;1.17;90.37;99488.66;5115548;28;20115;-79
2022/01/13 07:48:47;;;;;;;7.40;3.47;;;;;;;1.52;89.68;99503.91;5115366;28;20257;-78
2022/01/13 07:51:13;;;;;;;10.90;3.97;;;;;;;1.58;89.49;99525.31;5097302;28;20319;-75
2022/01/13 07:53:38;;;;;;;10.60;3.80;;;;;;;1.54;89.75;99509.84;5115587;28;20043;-77
2022/01/13 07:56:04;;;;;;;10.97;3.33;;;;;;;1.50;89.63;99494.53;5097141;28;20475;-75
2022/01/13 07:58:30;;;;;;;13.27;4.00;;;;;;;1.62;89.42;99518.84;5115221;28;20032;-76
2022/01/13 08:00:55;;;;;;;8.07;3.33;;;;;;;1.61;89.21;99498.81;5096738;28;20113;-78
2022/01/13 08:03:26;;;;;;;11.17;3.00;;;;;;;1.35;89.24;99415.38;5114705;28;20040;-79
2022/01/13 08:05:52;;;;;;;18.97;5.47;;;;;;;1.66;88.88;99451.97;5114443;28;20276;-78
2022/01/13 08:08:17;;;;;;;17.60;4.30;;;;;;;1.62;88.98;99475.06;5115416;28;20042;-76
2022/01/13 08:10:43;;;;;;;10.47;3.00;;;;;;;1.60;89.16;99489.28;5123187;28;20498;-68
2022/01/13 08:13:08;;;;;;;12.27;4.00;;;;;;;1.63;88.56;99502.13;5119790;28;20119;-74
2022/01/13 08:15:35;;;;;;;11.10;3.27;;;;;;;1.63;88.63;99492.44;5096043;28;20028;-78
2022/01/13 08:20:45;;;;;;;13.03;4.10;;;;;;;1.62;88.77;99442.72;5114255;28;20273;-75
2022/01/13 08:23:12;;;;;;;15.63;3.80;;;;;;;1.64;89.07;99480.16;5095938;28;20678;-71
2022/01/13 08:25:38;;;;;;;11.57;3.40;;;;;;;1.56;89.01;99475.59;5112892;28;20162;-70
2022/01/13 08:28:05;;;;;;;13.77;3.27;;;;;;;1.61;89.16;99462.06;5092882;28;20297;-71
2022/01/13 08:30:31;;;;;;;14.03;6.23;;;;;;;1.58;88.92;99470.22;5111876;28;20031;-73
2022/01/13 08:32:57;;;;;;;11.63;4.07;;;;;;;1.55;89.14;99489.69;5111941;28;20285;-73
2022/01/13 08:35:22;;;;;;;11.57;5.70;;;;;;;1.55;88.95;99479.19;5093513;28;20269;-74
2022/01/13 08:37:52;;;;;;;13.07;4.13;;;;;;;1.54;88.74;99460.00;5094385;28;20052;-70
2022/01/13 08:40:18;;;;;;;10.87;3.80;;;;;;;1.47;89.12;99437.91;5111486;28;20051;-74
2022/01/13 08:42:44;;;;;;;10.63;4.20;;;;;;;1.52;88.98;99440.13;5094907;28;20467;-71
2022/01/13 08:45:12;;;;;;;9.13;4.40;;;;;;;1.50;89.05;99419.25;5095286;28;20135;-69
2022/01/13 08:47:37;;;;;;;11.00;3.30;;;;;;;1.54;89.36;99436.38;5113579;28;20027;-75
2022/01/13 08:50:07;;;;;;;20.07;4.27;;;;;;;1.58;88.90;99451.84;5095036;28;20322;-72
2022/01/13 08:52:35;;;;;;;7.77;4.13;;;;;;;1.45;88.89;99463.44;5113623;28;20505;-71
2022/01/13 08:55:00;;;;;;;16.07;4.23;;;;;;;1.55;89.06;99468.69;5113055;28;20287;-71
2022/01/13 08:57:26;;;;;;;13.73;3.63;;;;;;;1.53;88.67;99454.88;5113505;28;20347;-72
2022/01/13 08:59:51;;;;;;;14.80;4.67;;;;;;;1.49;89.45;99464.00;5112857;28;20406;-67
2022/01/13 09:02:17;;;;;;;16.07;4.23;;;;;;;1.50;89.17;99469.13;5113115;28;20042;-72
2022/01/13 09:05:09;;;;;;;13.43;3.70;;;;;;;1.37;89.34;99455.41;5113487;28;20084;-76
2022/01/13 09:07:35;;;;;;;12.37;2.90;;;;;;;1.36;89.44;99474.75;5113655;28;20621;-70
2022/01/13 09:10:00;;;;;;;17.87;5.50;;;;;;;1.23;89.91;99456.63;5113143;28;20277;-70
2022/01/13 09:12:26;;;;;;;12.80;4.27;;;;;;;1.03;89.80;99427.88;5113137;28;20046;-72
2022/01/13 09:14:58;;;;;;;10.77;2.97;;;;;;;1.20;89.39;99466.56;5113261;28;20486;-70
2022/01/13 09:17:24;;;;;;;8.83;3.87;;;;;;;1.23;89.62;99466.31;5113313;28;20039;-73
2022/01/13 09:19:51;;;;;;;10.80;3.87;;;;;;;1.15;89.60;99426.78;5113880;28;20760;-77
2022/01/13 09:22:17;;;;;;;12.20;4.73;;;;;;;1.23;89.64;99446.16;5115086;28;20262;-75
2022/01/13 09:24:43;;;;;;;19.67;4.83;;;;;;;1.23;89.54;99442.69;5114448;28;20288;-75
2022/01/13 09:27:09;;;;;;;13.37;3.43;;;;;;;1.29;89.46;99421.16;5113237;28;20739;-69
2022/01/13 09:29:34;;;;;;;7.87;3.30;;;;;;;1.36;89.24;99417.03;5112876;28;20036;-76
2022/01/13 09:32:00;;;;;;;10.67;3.73;;;;;;;1.48;88.86;99423.81;5113093;28;20046;-72
2022/01/13 09:34:25;;;;;;;11.13;4.13;;;;;;;1.55;88.55;99413.59;5112688;28;20040;-69
2022/01/13 09:36:51;;;;;;;7.10;3.33;;;;;;;1.61;88.35;99420.91;5112095;28;20047;-70
2022/01/13 09:39:18;;;;;;;5.80;2.67;;;;;;;1.67;88.17;99417.72;5112801;28;20058;-70
2022/01/13 09:41:44;;;;;;;8.97;2.90;;;;;;;1.71;88.18;99415.66;5094511;28;20058;-69
2022/01/13 09:44:13;;;;;;;8.90;2.50;;;;;;;1.77;87.70;99415.13;5112602;28;20272;-70
2022/01/13 09:46:40;;;;;;;6.15;3.08;;;;;;;1.72;87.82;99384.00;5112515;28;20748;-70
2022/01/13 09:49:06;;;;;;;10.17;2.80;;;;;;;1.76;87.54;99381.97;5094422;28;20043;-71
2022/01/13 09:51:36;;;;;;;8.20;2.20;;;;;;;1.72;87.28;99381.38;5112305;28;20261;-71
2022/01/13 09:54:04;;;;;;;9.33;3.60;;;;;;;1.79;87.14;99376.44;5112706;28;20262;-71
2022/01/13 09:56:32;;;;;;;9.03;2.80;;;;;;;1.79;87.35;99386.94;5112181;28;20360;-71
2022/01/13 09:58:57;;;;;;;12.33;3.60;;;;;;;1.78;86.73;99395.78;5111995;28;20381;-71
2022/01/13 10:01:23;;;;;;;7.20;2.80;;;;;;;1.71;87.26;99369.25;5111768;28;20356;-72
2022/01/13 10:03:48;;;;;;;5.30;2.13;;;;;;;1.69;87.23;99376.44;5112060;28;20426;-73
2022/01/13 10:06:16;;;;;;;5.30;2.17;;;;;;;1.70;87.13;99359.72;5112276;28;20041;-71
2022/01/13 10:08:50;;;;;;;14.98;4.50;;;;;;;1.69;87.01;99383.47;5112674;28;20042;-76
2022/01/13 10:11:29;;;;;;;12.77;3.27;;;;;;;1.75;87.60;99369.81;5112319;28;20582;-78
2022/01/13 10:16:57;;;;;;;10.80;3.90;;;;;;;1.72;87.07;99380.56;5112347;28;20349;-75
2022/01/13 10:19:37;;;;;;;4.43;2.77;;;;;;;1.72;87.40;99375.31;5111967;28;20329;-69
2022/01/13 10:22:09;;;;;;;9.33;3.10;;;;;;;1.69;87.64;99354.59;5112251;28;20312;-75
2022/01/13 10:24:41;;;;;;;7.13;3.60;;;;;;;1.59;87.64;99348.53;5093863;28;20285;-72
2022/01/13 10:27:07;;;;;;;5.43;2.20;;;;;;;1.52;87.60;99338.63;5112424;28;20269;-74
2022/01/13 10:29:52;;;;;;;8.37;3.40;;;;;;;1.60;88.31;99350.19;5112327;28;20254;-74
2022/01/13 10:32:26;;;;;;;6.30;3.47;;;;;;;1.52;87.88;99343.88;5112239;28;20265;-77
2022/01/13 10:35:00;;;;;;;8.50;2.67;;;;;;;1.50;88.03;99335.31;5112044;28;20361;-68
2022/01/13 10:37:30;;;;;;;6.77;2.10;;;;;;;1.51;88.32;99347.44;5115017;28;20296;-71
2022/01/13 10:40:10;;;;;;;11.70;2.57;;;;;;;1.48;88.43;99347.75;5112328;28;20305;-72
2022/01/13 10:45:26;;;;;;;10.03;3.03;;;;;;;1.52;88.42;99371.91;5112026;28;20254;-71
2022/01/13 10:48:03;;;;;;;6.00;2.60;;;;;;;1.53;88.72;99369.13;5112689;28;20300;-74
2022/01/13 10:50:41;;;;;;;5.20;2.30;;;;;;;1.66;88.43;99360.13;5115791;28;20266;-76
2022/01/13 10:53:18;;;;;;;6.53;2.30;;;;;;;1.71;88.17;99360.53;5115754;28;20361;-71
2022/01/13 10:55:51;;;;;;;5.50;2.60;;;;;;;1.80;87.61;99372.84;5116071;28;20265;-77
2022/01/13 10:58:22;;;;;;;5.97;2.30;;;;;;;1.77;87.46;99347.69;5115889;28;20748;-72
2022/01/13 11:00:50;;;;;;;5.83;2.40;;;;;;;1.80;87.22;99360.53;5115750;28;20281;-76
2022/01/13 11:03:19;;;;;;;9.52;2.47;;;;;;;1.80;87.71;99368.41;5115763;28;20365;-70
2022/01/13 11:05:53;;;;;;;9.88;2.50;;;;;;;1.70;87.49;99351.00;5115486;28;20041;-69
2022/01/13 11:08:31;;;;;;;6.57;2.30;;;;;;;1.77;87.50;99360.00;5115222;28;20044;-73
2022/01/13 11:11:01;;;;;;;8.57;2.37;;;;;;;1.88;87.16;99372.94;5115435;28;20261;-71
2022/01/13 11:13:30;;;;;;;10.23;2.27;;;;;;;1.95;86.87;99384.53;5115777;28;20677;-70
2022/01/13 11:15:57;;;;;;;3.58;1.65;;;;;;;1.95;87.07;99375.84;5115666;28;20676;-69
2022/01/13 11:18:28;;;;;;;7.23;2.37;;;;;;;1.87;86.82;99345.03;5115306;28;20043;-68
2022/01/13 11:20:55;;;;;;;7.33;2.17;;;;;;;1.81;86.80;99337.75;5115281;28;20345;-72
2022/01/13 11:23:21;;;;;;;7.17;2.10;;;;;;;1.80;87.25;99315.91;5115232;28;20656;-71
2022/01/13 11:25:50;;;;;;;7.83;2.03;;;;;;;1.82;86.67;99319.22;5115204;28;20293;-67
2022/01/13 11:28:16;;;;;;;4.50;2.10;;;;;;;1.81;86.89;99358.75;5115009;28;20033;-70
2022/01/13 11:30:42;;;;;;;3.83;2.20;;;;;;;1.79;87.00;99314.25;5080049;28;20708;-73
2022/01/13 11:33:08;;;;;;;5.57;2.17;;;;;;;1.65;87.08;99316.50;5096654;28;20281;-71
2022/01/13 11:35:45;;;;;;;7.97;2.53;;;;;;;1.64;87.07;99309.59;5115007;28;20810;-70
2022/01/13 11:38:16;;;;;;;10.43;2.83;;;;;;;1.75;87.23;99296.31;5114884;28;20055;-71
2022/01/13 11:40:47;;;;;;;2.53;2.17;;;;;;;1.80;86.89;99309.84;5115049;28;20297;-70
2022/01/13 11:43:23;;;;;;;4.63;2.07;;;;;;;1.90;86.96;99318.50;5115058;28;20384;-71
2022/01/13 11:45:48;;;;;;;4.33;2.10;;;;;;;1.79;86.53;99287.19;5115092;28;20817;-68
2022/01/13 11:48:26;;;;;;;4.23;2.27;;;;;;;1.98;86.24;99329.13;5114881;28;20303;-69
2022/01/13 11:51:16;;;;;;;3.03;2.10;;;;;;;2.07;85.96;99343.22;5115068;28;20058;-69
2022/01/13 11:54:04;;;;;;;8.10;2.33;;;;;;;2.07;85.56;99316.94;5114842;28;20349;-69
2022/01/13 11:56:31;;;;;;;4.63;2.20;;;;;;;2.05;85.57;99303.97;5114691;28;20287;-70